Terminal Aerodrome Forecast
Issued by NWS

Home | Current Version | Previous Version | Text Only | Print | Product List | Glossary On
Versions: 1 2 3 4 5 6 7 8 9 10 11 12 13
000
FTUS45 KMSO 252300
TAFSMN
TAF
KSMN 252320Z 2600/2624 01011KT P6SM SKC
     FM260200 36006KT P6SM SKC
     FM260600 VRB03KT P6SM SKC
     FM261700 35004KT P6SM SKC
     FM262300 01010KT P6SM SKC
      AMD LTD TO CLD VIS AND WIND=

USA.gov is the U.S. government's official web portal to all federal, state and local government web resources and services.